Time;durP1;ratioP1;P1;durP2;ratioP2;P2;SDS_P1;SDS_P2;PMS_P1;PMS_P2;Temp;Humidity;BMP_temperature;BMP_pressure;BME280_temperature;BME280_humidity;BME280_pressure;Samples;Min_cycle;Max_cycle;Signal;HPM_P1;HPM_P2
2022/07/28 00:01:11;;;;;;;;;;;;;;;22.16;61.05;101051.98;1698120;84;25900;-63
2022/07/28 00:03:38;;;;;;;;;;;;;;;22.03;61.29;101051.92;1709382;83;25526;-63
2022/07/28 00:06:05;;;;;;;;;;;;;;;21.86;61.80;101048.72;1709157;82;25798;-63
2022/07/28 00:08:32;;;;;;;;;;;;;;;21.80;61.57;101050.37;1696485;84;25775;-63
2022/07/28 00:10:58;;;;;;;;;;;;;;;21.81;61.63;101053.44;1686753;84;27472;-63
2022/07/28 00:13:25;;;;;;;;;;;;;;;21.86;61.53;101048.72;1688235;84;26000;-63
2022/07/28 00:15:51;;;;;;;;;;;;;;;21.92;61.55;101048.43;1686790;84;25461;-63
2022/07/28 00:18:18;;;;;;;;;;;;;;;21.96;61.84;101051.06;1686787;85;26255;-63
2022/07/28 00:20:45;;;;;;;;;;;;;;;21.94;61.75;101044.42;1687240;84;25745;-63
2022/07/28 00:23:12;;;;;;;;;;;;;;;21.91;62.01;101043.45;1687829;83;27494;-63
2022/07/28 00:25:38;;;;;;;;;;;;;;;21.91;62.63;101050.84;1680625;85;25812;-63
2022/07/28 00:28:05;;;;;;;;;;;;;;;21.86;61.84;101041.33;1684582;84;25751;-63
2022/07/28 00:30:31;;;;;;;;;;;;;;;21.89;61.80;101042.81;1687178;84;25964;-63
2022/07/28 00:32:58;;;;;;;;;;;;;;;21.92;61.78;101042.95;1686522;81;25743;-63
2022/07/28 00:35:25;;;;;;;;;;;;;;;21.95;61.61;101039.78;1686812;83;27435;-63
2022/07/28 00:37:51;;;;;;;;;;;;;;;21.99;61.29;101040.53;1686700;85;25829;-63
2022/07/28 00:40:18;;;;;;;;;;;;;;;22.02;61.21;101046.98;1686602;84;25799;-63
2022/07/28 00:42:44;;;;;;;;;;;;;;;22.05;61.05;101050.66;1690478;84;25799;-63
2022/07/28 00:45:11;;;;;;;;;;;;;;;22.05;61.24;101047.09;1709094;82;26206;-63
2022/07/28 00:47:38;;;;;;;;;;;;;;;22.03;61.36;101046.44;1703291;84;27592;-62
2022/07/28 00:50:06;;;;;;;;;;;;;;;22.02;61.31;101048.35;1703480;84;25808;-63
2022/07/28 00:52:33;;;;;;;;;;;;;;;22.02;61.42;101044.75;1703671;84;25804;-63
2022/07/28 00:55:02;;;;;;;;;;;;;;;22.02;61.44;101046.12;1703532;84;25754;-63
2022/07/28 00:57:29;;;;;;;;;;;;;;;22.01;61.49;101039.81;1702549;84;25696;-63
2022/07/28 00:59:55;;;;;;;;;;;;;;;21.97;61.68;101039.89;1691425;82;28421;-63
2022/07/28 01:02:22;;;;;;;;;;;;;;;21.91;61.89;101035.78;1656079;86;25769;-63
2022/07/28 01:04:48;;;;;;;;;;;;;;;21.87;61.71;101034.81;1655742;85;25768;-63
2022/07/28 01:07:35;;;;;;;;;;;;;;;21.86;61.74;101035.86;1655703;85;25698;-63
2022/07/28 01:10:08;;;;;;;;;;;;;;;21.86;61.94;101043.23;1655052;86;25775;-63
2022/07/28 01:12:54;;;;;;;;;;;;;;;21.84;62.01;101046.16;1643068;86;27485;-63
2022/07/28 01:15:24;;;;;;;;;;;;;;;21.82;62.21;101047.42;1635958;87;25813;-63
2022/07/28 01:17:57;;;;;;;;;;;;;;;21.75;63.42;101054.77;1636342;85;25685;-63
2022/07/28 01:20:42;;;;;;;;;;;;;;;21.67;63.72;101054.41;1636351;87;26807;-63
2022/07/28 01:23:27;;;;;;;;;;;;;;;21.62;63.96;101041.86;1635808;86;25493;-63
2022/07/28 01:26:32;;;;;;;;;;;;;;;21.53;64.44;101030.19;1636417;87;27676;-62
2022/07/28 01:29:29;;;;;;;;;;;;;;;21.42;64.92;101029.74;1636342;87;26500;-62
2022/07/28 01:32:06;;;;;;;;;;;;;;;21.35;65.07;101030.73;1578266;87;26720;-63
2022/07/28 01:34:40;;;;;;;;;;;;;;;21.29;64.73;101034.29;1655118;86;25948;-62
2022/07/28 01:37:16;;;;;;;;;;;;;;;21.22;64.46;101037.80;1654925;86;25681;-63
2022/07/28 01:39:44;;;;;;;;;;;;;;;21.19;64.63;101045.06;1654910;86;27629;-63
2022/07/28 01:42:12;;;;;;;;;;;;;;;21.20;64.70;101044.53;1654812;86;25811;-63
2022/07/28 01:44:41;;;;;;;;;;;;;;;21.20;64.21;101042.62;1655163;86;25804;-63
2022/07/28 01:47:08;;;;;;;;;;;;;;;21.23;64.19;101040.04;1654887;86;25805;-63
2022/07/28 01:49:36;;;;;;;;;;;;;;;21.22;64.11;101036.98;1654971;86;25793;-63
2022/07/28 01:52:06;;;;;;;;;;;;;;;21.24;64.22;101034.89;1654579;85;27455;-63
2022/07/28 01:54:33;;;;;;;;;;;;;;;21.15;65.11;101034.19;1655190;86;25701;-63
2022/07/28 01:57:01;;;;;;;;;;;;;;;20.99;64.85;101037.23;1654813;85;25815;-63
2022/07/28 01:59:29;;;;;;;;;;;;;;;20.88;64.72;101036.73;1655072;86;25812;-61
2022/07/28 02:01:56;;;;;;;;;;;;;;;20.86;64.80;101044.81;1652397;85;25727;-63
2022/07/28 02:04:25;;;;;;;;;;;;;;;20.83;65.50;101038.36;1652073;85;28283;-63
2022/07/28 02:06:53;;;;;;;;;;;;;;;20.77;65.51;101050.42;1653679;85;25752;-63
2022/07/28 02:09:22;;;;;;;;;;;;;;;20.75;66.08;101047.03;1654766;86;25701;-63
2022/07/28 02:11:51;;;;;;;;;;;;;;;20.69;65.69;101048.30;1654862;86;25792;-63
2022/07/28 02:14:22;;;;;;;;;;;;;;;20.66;65.65;101048.72;1654832;86;25855;-63
2022/07/28 02:16:52;;;;;;;;;;;;;;;20.62;65.96;101046.87;1654967;86;27464;-63
2022/07/28 02:19:20;;;;;;;;;;;;;;;20.59;65.68;101050.84;1626502;86;25711;-63
2022/07/28 02:21:49;;;;;;;;;;;;;;;20.60;65.56;101046.24;1654929;86;25808;-63
2022/07/28 02:24:19;;;;;;;;;;;;;;;20.61;65.63;101054.23;1654856;86;25801;-63
2022/07/28 02:26:49;;;;;;;;;;;;;;;20.59;66.10;101056.84;1654990;86;25518;-63
2022/07/28 02:29:18;;;;;;;;;;;;;;;20.54;65.96;101050.60;1654939;86;27542;-63
2022/07/28 02:32:00;;;;;;;;;;;;;;;20.49;65.68;101053.05;1654799;85;25669;-62
2022/07/28 02:34:27;;;;;;;;;;;;;;;20.46;65.62;101057.56;1632529;86;25544;-63
2022/07/28 02:36:57;;;;;;;;;;;;;;;20.44;65.59;101058.27;1654781;85;25805;-63
2022/07/28 02:39:30;;;;;;;;;;;;;;;20.46;65.96;101055.66;1654182;86;25444;-63
2022/07/28 02:42:01;;;;;;;;;;;;;;;20.44;65.67;101057.73;1654492;86;27550;-63
2022/07/28 02:44:31;;;;;;;;;;;;;;;20.50;65.55;101061.58;1654349;86;25801;-63
2022/07/28 02:46:58;;;;;;;;;;;;;;;20.53;65.87;101066.67;1654555;85;25554;-62
2022/07/28 02:49:29;;;;;;;;;;;;;;;20.47;65.52;101073.75;1655236;86;25767;-63
2022/07/28 02:51:57;;;;;;;;;;;;;;;20.46;65.55;101078.89;1654723;86;25475;-63
2022/07/28 02:54:26;;;;;;;;;;;;;;;20.47;65.63;101075.66;1655196;86;27500;-63
2022/07/28 02:56:53;;;;;;;;;;;;;;;20.43;65.38;101087.50;1654739;86;25792;-63
2022/07/28 02:59:21;;;;;;;;;;;;;;;20.40;65.63;101089.74;1654851;86;25699;-62
2022/07/28 03:01:48;;;;;;;;;;;;;;;20.41;65.49;101087.34;1652441;86;26624;-63
2022/07/28 03:04:16;;;;;;;;;;;;;;;20.36;65.49;101095.28;1652150;87;25763;-62
2022/07/28 03:06:42;;;;;;;;;;;;;;;20.32;65.51;101096.20;1654952;86;27480;-62
2022/07/28 03:09:11;;;;;;;;;;;;;;;20.28;65.62;101094.37;1655347;86;25528;-62
2022/07/28 03:11:51;;;;;;;;;;;;;;;20.29;65.44;101091.97;1655009;86;25662;-63
2022/07/28 03:14:18;;;;;;;;;;;;;;;20.36;65.49;101089.82;1655167;86;25833;-62
2022/07/28 03:16:45;;;;;;;;;;;;;;;20.43;65.30;101091.59;1654974;86;25779;-62
2022/07/28 03:19:11;;;;;;;;;;;;;;;20.44;65.37;101100.63;1654795;86;27536;-61
2022/07/28 03:21:40;;;;;;;;;;;;;;;20.42;65.30;101102.70;1654722;86;25814;-62
2022/07/28 03:24:08;;;;;;;;;;;;;;;20.39;65.37;101101.20;1654875;86;25492;-62
2022/07/28 03:26:40;;;;;;;;;;;;;;;20.37;65.48;101114.73;1654940;85;25793;-62
2022/07/28 03:29:08;;;;;;;;;;;;;;;20.28;65.72;101109.40;1654805;86;25665;-61
2022/07/28 03:31:35;;;;;;;;;;;;;;;20.29;65.69;101111.09;1626466;84;27534;-62
2022/07/28 03:34:03;;;;;;;;;;;;;;;20.35;65.69;101108.08;1662140;84;25498;-61
2022/07/28 03:36:34;;;;;;;;;;;;;;;20.41;65.61;101113.30;1665051;86;25767;-62
2022/07/28 03:39:03;;;;;;;;;;;;;;;20.47;65.56;101118.02;1665136;86;26401;-63
2022/07/28 03:41:32;;;;;;;;;;;;;;;20.51;65.44;101121.20;1665204;86;25673;-62
2022/07/28 03:44:01;;;;;;;;;;;;;;;20.54;65.64;101123.53;1664711;86;27453;-63
2022/07/28 03:46:28;;;;;;;;;;;;;;;20.58;65.27;101123.48;1661947;85;26497;-63
2022/07/28 03:48:55;;;;;;;;;;;;;;;20.66;65.08;101127.98;1661541;85;25705;-63
2022/07/28 03:51:24;;;;;;;;;;;;;;;20.69;64.93;101132.55;1664965;86;25895;-62
2022/07/28 03:53:50;;;;;;;;;;;;;;;20.69;64.89;101141.24;1664987;86;25826;-63
2022/07/28 03:56:16;;;;;;;;;;;;;;;20.69;64.97;101132.55;1665180;86;27553;-63
2022/07/28 03:58:43;;;;;;;;;;;;;;;20.71;64.73;101134.53;1665287;86;25547;-63
2022/07/28 04:01:09;;;;;;;;;;;;;;;20.74;64.60;101127.89;1662198;85;25803;-62
2022/07/28 04:03:36;;;;;;;;;;;;;;;20.73;65.48;101128.89;1660374;85;26771;-63
2022/07/28 04:06:02;;;;;;;;;;;;;;;20.63;65.14;101127.33;1665084;86;25804;-63
2022/07/28 04:08:29;;;;;;;;;;;;;;;20.62;65.10;101121.53;1664696;86;27493;-63
2022/07/28 04:10:56;;;;;;;;;;;;;;;20.67;64.98;101122.31;1665014;86;25783;-63
2022/07/28 04:13:22;;;;;;;;;;;;;;;20.71;65.25;101121.40;1664731;86;25795;-62
2022/07/28 04:15:49;;;;;;;;;;;;;;;20.73;65.62;101122.06;1664882;86;25799;-63
2022/07/28 04:18:15;;;;;;;;;;;;;;;20.68;65.23;101126.75;1664904;86;25894;-63
2022/07/28 04:20:41;;;;;;;;;;;;;;;20.69;65.21;101124.84;1664948;86;27466;-63
2022/07/28 04:23:09;;;;;;;;;;;;;;;20.73;65.49;101130.27;1665245;86;26316;-63
2022/07/28 04:25:36;;;;;;;;;;;;;;;20.78;65.32;101123.70;1664999;86;25568;-63
2022/07/28 04:28:04;;;;;;;;;;;;;;;20.79;65.56;101124.90;1665136;86;25910;-63
2022/07/28 04:30:30;;;;;;;;;;;;;;;20.82;65.37;101134.59;1664614;86;25806;-63
2022/07/28 04:32:57;;;;;;;;;;;;;;;20.86;64.98;101139.98;1664897;85;27439;-63
2022/07/28 04:35:26;;;;;;;;;;;;;;;20.89;65.20;101134.12;1664912;86;25763;-63
2022/07/28 04:37:57;;;;;;;;;;;;;;;20.89;64.90;101133.27;1664965;86;25696;-63
2022/07/28 04:40:21;;;;;;;;;;;;;;;20.93;64.80;101137.31;1664617;85;25840;-63
2022/07/28 04:42:48;;;;;;;;;;;;;;;20.95;64.91;101134.70;1665319;86;25889;-62
2022/07/28 04:45:14;;;;;;;;;;;;;;;21.01;65.04;101144.55;1664897;84;27496;-63
2022/07/28 04:47:41;;;;;;;;;;;;;;;21.07;64.79;101149.22;1661484;86;25712;-60
2022/07/28 04:50:09;;;;;;;;;;;;;;;21.13;64.47;101154.44;1672468;84;26519;-60
2022/07/28 04:52:37;;;;;;;;;;;;;;;21.17;64.40;101155.20;1696277;84;25762;-61
2022/07/28 04:55:05;;;;;;;;;;;;;;;21.20;64.07;101162.17;1695985;84;25749;-61
2022/07/28 04:57:32;;;;;;;;;;;;;;;21.26;63.90;101162.23;1696215;84;28340;-61
2022/07/28 04:59:59;;;;;;;;;;;;;;;21.33;63.78;101166.91;1666498;84;25756;-61
2022/07/28 05:02:26;;;;;;;;;;;;;;;21.38;63.47;101168.55;1659373;85;25813;-62
2022/07/28 05:04:53;;;;;;;;;;;;;;;21.40;63.13;101179.61;1659467;85;25875;-61
2022/07/28 05:07:19;;;;;;;;;;;;;;;21.41;62.98;101169.49;1662168;86;25762;-62
2022/07/28 05:09:46;;;;;;;;;;;;;;;21.48;63.06;101170.38;1665606;84;27525;-61
2022/07/28 05:12:14;;;;;;;;;;;;;;;21.58;63.07;101178.30;1674599;85;44122;-61
2022/07/28 05:14:41;;;;;;;;;;;;;;;21.68;62.84;101177.93;1675236;85;25805;-62
2022/07/28 05:17:08;;;;;;;;;;;;;;;21.69;62.37;101176.89;1675230;85;25810;-62
2022/07/28 05:19:34;;;;;;;;;;;;;;;21.69;62.43;101179.63;1675229;85;25789;-62
2022/07/28 05:22:01;;;;;;;;;;;;;;;21.68;62.38;101177.42;1674989;85;27547;-62
2022/07/28 05:24:28;;;;;;;;;;;;;;;21.58;62.49;101181.87;1664580;85;25703;-62
2022/07/28 05:26:54;;;;;;;;;;;;;;;21.57;62.48;101180.14;1695111;83;25760;-62
2022/07/28 05:29:21;;;;;;;;;;;;;;;21.53;62.60;101170.66;1684984;84;26433;-62
2022/07/28 05:31:47;;;;;;;;;;;;;;;21.54;62.51;101170.98;1677493;85;25719;-61
2022/07/28 05:34:14;;;;;;;;;;;;;;;21.59;62.74;101174.52;1677493;84;28266;-62
2022/07/28 05:36:41;;;;;;;;;;;;;;;21.62;62.60;101172.73;1682439;85;25757;-62
2022/07/28 05:39:08;;;;;;;;;;;;;;;21.65;62.51;101175.08;1703579;83;26491;-61
2022/07/28 05:41:34;;;;;;;;;;;;;;;21.73;62.73;101180.94;1708897;83;25762;-61
2022/07/28 05:44:00;;;;;;;;;;;;;;;21.75;62.56;101178.81;1696854;83;26321;-61
2022/07/28 05:46:27;;;;;;;;;;;;;;;21.79;62.41;101176.02;1681906;84;28361;-61
2022/07/28 05:48:54;;;;;;;;;;;;;;;21.84;62.24;101183.09;1715643;82;25735;-61
2022/07/28 05:51:21;;;;;;;;;;;;;;;21.85;62.19;101186.16;1685357;84;25819;-61
2022/07/28 05:53:47;;;;;;;;;;;;;;;21.87;62.16;101189.55;1700584;84;26671;-62
2022/07/28 05:56:13;;;;;;;;;;;;;;;21.87;62.15;101185.97;1694286;84;25772;-62
2022/07/28 05:58:40;;;;;;;;;;;;;;;21.85;62.16;101187.52;1693344;84;25875;-62
2022/07/28 06:01:07;;;;;;;;;;;;;;;21.85;62.27;101188.89;1693089;84;25879;-62
2022/07/28 06:03:34;;;;;;;;;;;;;;;21.88;62.27;101185.77;1692996;84;25796;-62
2022/07/28 06:06:01;;;;;;;;;;;;;;;21.95;62.21;101186.31;1693240;84;26025;-62
2022/07/28 06:08:28;;;;;;;;;;;;;;;21.98;62.13;101196.88;1692904;84;25758;-62
2022/07/28 06:10:58;;;;;;;;;;;;;;;21.99;62.06;101193.92;1700107;83;28338;-62
2022/07/28 06:13:24;;;;;;;;;;;;;;;22.03;62.25;101193.86;1686417;83;26091;-63
2022/07/28 06:15:51;;;;;;;;;;;;;;;22.09;62.22;101194.08;1664511;86;25696;-62
2022/07/28 06:18:20;;;;;;;;;;;;;;;22.09;61.97;101195.45;1677831;84;25914;-62
2022/07/28 06:20:47;;;;;;;;;;;;;;;22.13;62.18;101198.95;1697902;84;25774;-62
2022/07/28 06:23:20;;;;;;;;;;;;;;;22.18;61.89;101196.98;1695546;83;27720;-62
2022/07/28 06:25:47;;;;;;;;;;;;;;;22.23;61.77;101195.00;1704127;83;26165;-62
2022/07/28 06:28:14;;;;;;;;;;;;;;;22.27;61.64;101195.77;1697437;84;25815;-62
2022/07/28 06:30:41;;;;;;;;;;;;;;;22.36;61.47;101203.30;1693769;83;25814;-62
2022/07/28 06:33:07;;;;;;;;;;;;;;;22.43;61.33;101200.59;1692315;84;26019;-62
2022/07/28 06:35:34;;;;;;;;;;;;;;;22.40;61.27;101201.86;1689044;84;27466;-62
2022/07/28 06:38:00;;;;;;;;;;;;;;;22.43;61.19;101199.22;1692284;84;25770;-62
2022/07/28 06:40:27;;;;;;;;;;;;;;;22.55;61.01;101204.98;1692286;84;26353;-62
2022/07/28 06:42:53;;;;;;;;;;;;;;;22.58;60.73;101208.67;1686533;84;25791;-61
2022/07/28 06:45:20;;;;;;;;;;;;;;;22.62;60.83;101205.85;1685410;85;25775;-61
2022/07/28 06:47:48;;;;;;;;;;;;;;;22.71;60.74;101207.86;1661864;86;27664;-62
2022/07/28 06:50:14;;;;;;;;;;;;;;;22.79;60.59;101205.80;1690599;83;25750;-62
2022/07/28 06:52:41;;;;;;;;;;;;;;;22.89;60.35;101205.92;1693639;83;25746;-62
2022/07/28 06:55:08;;;;;;;;;;;;;;;22.97;60.00;101206.55;1693714;83;25876;-62
2022/07/28 06:57:35;;;;;;;;;;;;;;;23.03;59.68;101209.00;1692681;84;25996;-62
2022/07/28 07:00:06;;;;;;;;;;;;;;;23.12;59.54;101200.05;1690974;83;27488;-60
2022/07/28 07:02:38;;;;;;;;;;;;;;;23.26;59.33;101202.31;1664474;85;26008;-62
2022/07/28 07:05:06;;;;;;;;;;;;;;;23.31;58.68;101201.14;1688530;83;25758;-62
2022/07/28 07:07:33;;;;;;;;;;;;;;;23.28;58.52;101198.30;1694693;83;26538;-63
2022/07/28 07:09:59;;;;;;;;;;;;;;;23.42;58.42;101199.15;1705706;83;25765;-62
2022/07/28 07:12:26;;;;;;;;;;;;;;;23.55;58.02;101201.55;1693694;83;27416;-62
2022/07/28 07:14:52;;;;;;;;;;;;;;;23.59;57.93;101202.29;1690453;83;25738;-62
2022/07/28 07:17:19;;;;;;;;;;;;;;;23.74;57.78;101205.36;1680818;84;25611;-62
2022/07/28 07:19:45;;;;;;;;;;;;;;;23.86;57.30;101207.75;1685294;83;25807;-62
2022/07/28 07:22:15;;;;;;;;;;;;;;;23.99;56.61;101208.27;1682244;83;25738;-62
2022/07/28 07:24:43;;;;;;;;;;;;;;;24.06;56.75;101209.64;1676236;83;27700;-62
2022/07/28 07:27:10;;;;;;;;;;;;;;;24.18;55.88;101212.56;1698637;83;25786;-62
2022/07/28 07:29:36;;;;;;;;;;;;;;;24.30;56.04;101211.35;1683362;83;25908;-62
2022/07/28 07:32:03;;;;;;;;;;;;;;;24.37;55.36;101222.65;1686232;83;25819;-62
2022/07/28 07:34:29;;;;;;;;;;;;;;;24.40;55.38;101225.48;1687510;83;25521;-57
2022/07/28 07:36:56;;;;;;;;;;;;;;;24.51;55.25;101222.61;1694303;84;27491;-62
2022/07/28 07:39:22;;;;;;;;;;;;;;;24.63;54.50;101218.64;1695240;83;26235;-62
2022/07/28 07:41:49;;;;;;;;;;;;;;;24.67;54.28;101225.37;1688617;84;25980;-62
2022/07/28 07:44:15;;;;;;;;;;;;;;;24.69;54.34;101226.03;1701498;84;26703;-62
2022/07/28 07:46:41;;;;;;;;;;;;;;;24.74;54.29;101223.48;1704994;83;25807;-62
2022/07/28 07:49:08;;;;;;;;;;;;;;;24.83;53.45;101221.30;1715625;83;27558;-62
2022/07/28 07:51:35;;;;;;;;;;;;;;;24.85;53.58;101225.52;1713562;83;25710;-62
2022/07/28 07:54:01;;;;;;;;;;;;;;;24.89;53.50;101221.79;1686491;85;25736;-62
2022/07/28 07:56:28;;;;;;;;;;;;;;;24.92;53.24;101218.60;1700491;84;26527;-63
2022/07/28 07:58:55;;;;;;;;;;;;;;;24.98;52.80;101216.33;1707205;82;25729;-62
2022/07/28 08:01:21;;;;;;;;;;;;;;;24.99;52.63;101218.02;1708304;83;27497;-62
2022/07/28 08:03:48;;;;;;;;;;;;;;;24.98;52.50;101216.33;1716866;82;26504;-62
2022/07/28 08:06:15;;;;;;;;;;;;;;;25.04;52.77;101212.40;1707933;83;25529;-62
2022/07/28 08:08:42;;;;;;;;;;;;;;;25.22;52.83;101210.25;1712145;83;26378;-62
2022/07/28 08:11:09;;;;;;;;;;;;;;;25.43;52.10;101213.17;1709019;83;25832;-63
2022/07/28 08:13:36;;;;;;;;;;;;;;;25.54;51.25;101215.20;1716880;82;27521;-63
2022/07/28 08:18:52;;;;;;;;;;;;;;;25.89;51.18;101217.41;1712534;82;25783;-62
2022/07/28 08:21:19;;;;;;;;;;;;;;;26.11;50.62;101226.66;1704684;82;25904;-62
2022/07/28 08:23:46;;;;;;;;;;;;;;;26.22;49.67;101220.91;1701966;84;25782;-62
2022/07/28 08:26:13;;;;;;;;;;;;;;;26.24;49.31;101222.36;1709731;82;28458;-62
2022/07/28 08:28:40;;;;;;;;;;;;;;;26.33;48.80;101222.05;1702416;82;25752;-62
2022/07/28 08:31:06;;;;;;;;;;;;;;;26.37;48.81;101231.55;1700666;84;25752;-63
2022/07/28 08:33:32;;;;;;;;;;;;;;;26.48;48.56;101225.79;1709479;83;25797;-62
2022/07/28 08:35:59;;;;;;;;;;;;;;;26.61;47.89;101224.77;1677726;85;26470;-62
2022/07/28 08:38:25;;;;;;;;;;;;;;;26.62;47.70;101220.94;1671588;85;27484;-62
2022/07/28 08:40:55;;;;;;;;;;;;;;;26.81;47.54;101221.24;1679548;84;25855;-63
2022/07/28 08:43:31;;;;;;;;;;;;;;;27.05;46.90;101219.93;1680927;85;25800;-62
2022/07/28 08:46:01;;;;;;;;;;;;;;;27.32;45.76;101220.37;1687204;84;25709;-63
2022/07/28 08:48:33;;;;;;;;;;;;;;;27.43;46.80;101219.28;1693654;84;25812;-63
2022/07/28 08:51:06;;;;;;;;;;;;;;;27.61;46.37;101229.38;1693781;84;27645;-62
2022/07/28 08:53:35;;;;;;;;;;;;;;;27.76;45.17;101223.37;1676048;84;26870;-61
2022/07/28 08:56:04;;;;;;;;;;;;;;;27.90;44.48;101217.06;1670129;85;25796;-62
2022/07/28 08:58:33;;;;;;;;;;;;;;;28.08;43.13;101216.95;1673896;85;25799;-63
2022/07/28 09:01:00;;;;;;;;;;;;;;;28.21;43.41;101219.13;1676968;84;25777;-62
2022/07/28 09:03:27;;;;;;;;;;;;;;;28.34;43.78;101215.25;1677254;85;27543;-62
2022/07/28 09:05:55;;;;;;;;;;;;;;;28.52;43.28;101217.84;1671757;85;25484;-62
2022/07/28 09:08:22;;;;;;;;;;;;;;;28.65;42.48;101207.02;1664576;86;25852;-63
2022/07/28 09:10:49;;;;;;;;;;;;;;;28.67;42.16;101197.94;1673198;85;25813;-62
2022/07/28 09:13:17;;;;;;;;;;;;;;;28.85;42.67;101204.38;1681293;84;25791;-62
2022/07/28 09:15:47;;;;;;;;;;;;;;;29.02;41.68;101201.09;1699624;84;27612;-63
2022/07/28 09:18:15;;;;;;;;;;;;;;;29.20;41.73;101196.41;1688564;83;25818;-62
2022/07/28 09:20:43;;;;;;;;;;;;;;;29.39;41.31;101198.44;1678894;85;25773;-63
2022/07/28 09:23:11;;;;;;;;;;;;;;;29.62;41.18;101202.09;1675778;85;25844;-61
2022/07/28 09:25:38;;;;;;;;;;;;;;;29.81;40.19;101200.72;1678529;85;25720;-63
2022/07/28 09:28:08;;;;;;;;;;;;;;;30.08;40.50;101201.93;1686703;84;29531;-62
2022/07/28 09:30:39;;;;;;;;;;;;;;;30.20;38.97;101206.81;1687342;83;25728;-62
2022/07/28 09:33:24;;;;;;;;;;;;;;;30.03;38.60;101206.89;1680080;84;25866;-63
2022/07/28 09:35:56;;;;;;;;;;;;;;;29.87;38.72;101204.95;1683574;84;26415;-63
2022/07/28 09:38:24;;;;;;;;;;;;;;;29.54;39.22;101201.14;1684905;84;25832;-63
2022/07/28 09:41:03;;;;;;;;;;;;;;;29.36;39.58;101201.70;1678661;84;28359;-63
2022/07/28 09:43:35;;;;;;;;;;;;;;;29.37;39.37;101203.37;1684262;85;25787;-62
2022/07/28 09:46:07;;;;;;;;;;;;;;;29.37;39.54;101201.99;1689445;83;25720;-63
2022/07/28 09:48:36;;;;;;;;;;;;;;;29.54;40.34;101202.52;1715302;83;26453;-62
2022/07/28 09:51:12;;;;;;;;;;;;;;;29.64;38.79;101204.90;1683692;83;25755;-63
2022/07/28 09:53:39;;;;;;;;;;;;;;;29.85;38.86;101198.28;1682441;84;27452;-63
2022/07/28 09:56:06;;;;;;;;;;;;;;;30.17;37.56;101208.71;1677204;85;25856;-61
2022/07/28 09:58:32;;;;;;;;;;;;;;;30.51;36.62;101203.57;1676803;85;26373;-62
2022/07/28 10:01:19;;;;;;;;;;;;;;;30.68;36.57;101204.91;1665731;85;25812;-62
2022/07/28 10:03:42;;;;;;;;;;;;;;;31.13;36.23;101209.81;1663841;84;27232;-62
2022/07/28 10:06:14;;;;;;;;;;;;;;;31.71;36.00;101207.79;1642952;86;27615;-62
2022/07/28 10:08:47;;;;;;;;;;;;;;;31.98;35.96;101205.73;1671167;85;25801;-62
2022/07/28 10:11:16;;;;;;;;;;;;;;;32.36;33.19;101209.81;1677528;84;25705;-62
2022/07/28 10:14:03;;;;;;;;;;;;;;;32.47;34.16;101209.28;1677496;85;25949;-61
2022/07/28 10:16:32;;;;;;;;;;;;;;;32.44;33.51;101204.28;1674259;85;25640;-62
2022/07/28 10:19:00;;;;;;;;;;;;;;;32.31;34.43;101205.06;1677534;84;27518;-61
2022/07/28 10:21:29;;;;;;;;;;;;;;;32.29;33.95;101200.88;1677263;85;25790;-62
2022/07/28 10:23:58;;;;;;;;;;;;;;;32.33;32.85;101203.95;1677654;85;25807;-62
2022/07/28 10:26:28;;;;;;;;;;;;;;;32.53;33.31;101197.61;1677468;85;25858;-63
2022/07/28 10:28:55;;;;;;;;;;;;;;;32.82;32.32;101202.15;1677718;85;25786;-62
2022/07/28 10:31:28;;;;;;;;;;;;;;;33.12;32.09;101201.91;1664921;85;27567;-62
2022/07/28 10:33:58;;;;;;;;;;;;;;;33.24;32.18;101194.12;1663441;85;25804;-62
2022/07/28 10:36:26;;;;;;;;;;;;;;;33.14;30.00;101203.02;1678411;85;25781;-63
2022/07/28 10:39:02;;;;;;;;;;;;;;;32.86;31.30;101201.89;1679006;85;25848;-62
2022/07/28 10:41:33;;;;;;;;;;;;;;;32.76;32.29;101201.84;1678731;85;25766;-62
2022/07/28 10:44:01;;;;;;;;;;;;;;;32.75;32.17;101201.02;1677824;84;27579;-62
2022/07/28 10:46:29;;;;;;;;;;;;;;;32.68;33.04;101196.81;1679691;84;26167;-62
2022/07/28 10:48:57;;;;;;;;;;;;;;;32.70;32.83;101192.63;1693571;83;25736;-62
2022/07/28 10:51:24;;;;;;;;;;;;;;;32.67;32.32;101189.56;1691527;84;26084;-62
2022/07/28 10:53:57;;;;;;;;;;;;;;;32.75;32.03;101195.98;1664075;86;25714;-62
2022/07/28 10:56:47;;;;;;;;;;;;;;;32.72;31.25;101189.02;1662314;86;27512;-62
2022/07/28 10:59:22;;;;;;;;;;;;;;;32.99;31.38;101181.00;1663230;86;25816;-62
2022/07/28 11:01:49;;;;;;;;;;;;;;;33.50;31.37;101180.17;1671714;84;25841;-62
2022/07/28 11:04:41;;;;;;;;;;;;;;;33.79;30.37;101186.53;1678884;84;25840;-62
2022/07/28 11:07:10;;;;;;;;;;;;;;;33.86;28.70;101179.27;1673458;85;25737;-62
2022/07/28 11:09:36;;;;;;;;;;;;;;;34.48;28.76;101177.61;1664267;86;27571;-62
2022/07/28 11:12:05;;;;;;;;;;;;;;;35.29;28.56;101173.13;1678448;83;25786;-62
2022/07/28 11:14:34;;;;;;;;;;;;;;;35.60;26.99;101174.81;1679119;84;25832;-62
2022/07/28 11:17:06;;;;;;;;;;;;;;;36.14;26.45;101175.58;1678655;85;26536;-62
2022/07/28 11:19:50;;;;;;;;;;;;;;;36.33;25.61;101170.02;1683522;84;25843;-62
2022/07/28 11:22:27;;;;;;;;;;;;;;;36.43;25.27;101168.52;1667177;84;27660;-62
2022/07/28 11:25:00;;;;;;;;;;;;;;;35.69;25.13;101166.03;1656558;86;25768;-62
2022/07/28 11:27:49;;;;;;;;;;;;;;;35.44;26.48;101169.38;1657513;86;25714;-62
2022/07/28 11:30:14;;;;;;;;;;;;;;;35.36;26.74;101168.02;1656209;86;25872;-62
2022/07/28 11:32:53;;;;;;;;;;;;;;;35.41;27.23;101167.16;1653497;86;26096;-62
2022/07/28 11:35:26;;;;;;;;;;;;;;;36.11;26.85;101161.63;1657474;85;27661;-62
2022/07/28 11:38:06;;;;;;;;;;;;;;;36.92;26.33;101157.97;1658820;85;25746;-62
2022/07/28 11:40:36;;;;;;;;;;;;;;;36.89;24.00;101158.58;1657139;85;25837;-62
2022/07/28 11:43:32;;;;;;;;;;;;;;;36.12;24.28;101159.67;1652496;85;25920;-62
2022/07/28 11:46:05;;;;;;;;;;;;;;;35.70;24.98;101153.71;1639882;85;25730;-62
2022/07/28 11:48:32;;;;;;;;;;;;;;;34.90;25.42;101158.64;1655878;85;29699;-62
2022/07/28 11:51:05;;;;;;;;;;;;;;;34.35;26.24;101163.70;1655198;85;25922;-62
2022/07/28 11:53:38;;;;;;;;;;;;;;;34.30;27.09;101163.16;1653492;86;25846;-62
2022/07/28 11:56:07;;;;;;;;;;;;;;;34.45;27.62;101158.09;1652223;85;25822;-62
2022/07/28 11:58:35;;;;;;;;;;;;;;;34.51;27.43;101158.08;1649892;86;25727;-62
2022/07/28 12:01:17;;;;;;;;;;;;;;;34.56;26.69;101156.63;1657227;85;27520;-62
2022/07/28 12:03:42;;;;;;;;;;;;;;;34.66;27.22;101154.31;1646285;86;25934;-62
2022/07/28 12:06:10;;;;;;;;;;;;;;;34.78;26.43;101150.60;1652482;86;25792;-62
2022/07/28 12:08:55;;;;;;;;;;;;;;;34.77;27.25;101153.97;1650879;86;25759;-62
2022/07/28 12:11:25;;;;;;;;;;;;;;;34.85;26.88;101152.50;1643590;86;25734;-62
2022/07/28 12:14:01;;;;;;;;;;;;;;;34.99;27.12;101154.09;1658873;85;27464;-62
2022/07/28 12:16:31;;;;;;;;;;;;;;;35.06;27.19;101146.78;1658874;85;25804;-62
2022/07/28 12:18:59;;;;;;;;;;;;;;;35.29;26.36;101150.76;1681779;84;25712;-63
2022/07/28 12:21:44;;;;;;;;;;;;;;;35.42;25.85;101142.27;1694102;84;25739;-62
2022/07/28 12:24:14;;;;;;;;;;;;;;;35.73;25.57;101144.16;1697685;84;25517;-62
2022/07/28 12:26:42;;;;;;;;;;;;;;;35.95;25.46;101139.98;1697664;84;27500;-62
2022/07/28 12:29:13;;;;;;;;;;;;;;;36.74;24.81;101132.17;1698213;84;25866;-62
2022/07/28 12:31:57;;;;;;;;;;;;;;;37.74;24.90;101130.96;1697597;84;25768;-62
2022/07/28 12:34:25;;;;;;;;;;;;;;;38.75;23.63;101128.72;1697835;84;25799;-62
2022/07/28 12:36:55;;;;;;;;;;;;;;;39.74;21.36;101130.05;1694797;84;25623;-63
2022/07/28 12:39:24;;;;;;;;;;;;;;;40.58;20.87;101119.88;1694180;84;27459;-62
2022/07/28 12:42:02;;;;;;;;;;;;;;;41.12;19.52;101121.73;1694114;84;25695;-64
2022/07/28 12:44:37;;;;;;;;;;;;;;;41.91;19.46;101113.55;1694050;84;25783;-63
2022/07/28 12:47:06;;;;;;;;;;;;;;;42.62;19.03;101108.99;1713312;83;27969;-63
2022/07/28 12:49:34;;;;;;;;;;;;;;;43.09;17.98;101113.50;1718766;83;25703;-63